createdAt,value
2024-05-09T00:02:45.940Z,10.43
2024-05-09T00:06:50.282Z,10.27
2024-05-09T00:10:52.753Z,10.13
2024-05-09T00:14:54.639Z,10.27
2024-05-09T00:18:56.503Z,10.16
2024-05-09T00:23:01.309Z,10.13
2024-05-09T00:27:03.434Z,10.07
2024-05-09T00:31:05.111Z,10.22
2024-05-09T00:35:07.426Z,10.17
2024-05-09T00:39:11.875Z,10.07
2024-05-09T00:43:14.818Z,9.91
2024-05-09T00:47:17.445Z,9.88
2024-05-09T00:51:20.071Z,9.84
2024-05-09T00:55:24.701Z,9.67
2024-05-09T00:59:27.467Z,9.88
2024-05-09T01:03:29.677Z,9.80
2024-05-09T01:07:31.626Z,9.74
2024-05-09T01:11:36.732Z,9.67
2024-05-09T01:15:38.551Z,9.84
2024-05-09T01:19:42.031Z,9.73
2024-05-09T01:23:46.549Z,9.85
2024-05-09T01:27:48.306Z,9.84
2024-05-09T01:31:50.170Z,9.81
2024-05-09T01:35:52.209Z,9.71
2024-05-09T01:39:56.565Z,9.45
2024-05-09T01:43:58.425Z,9.54
2024-05-09T01:48:00.585Z,9.72
2024-05-09T01:52:02.769Z,9.57
2024-05-09T01:56:08.186Z,9.45
2024-05-09T02:00:15.539Z,9.48
2024-05-09T02:04:19.995Z,9.34
2024-05-09T02:08:22.409Z,9.32
2024-05-09T02:12:27.019Z,9.31
2024-05-09T02:16:28.850Z,9.29
2024-05-09T02:20:35.970Z,9.33
2024-05-09T02:24:38.733Z,9.30
2024-05-09T02:28:43.268Z,8.99
2024-05-09T02:32:45.274Z,9.18
2024-05-09T02:36:47.095Z,9.24
2024-05-09T02:40:48.930Z,9.16
2024-05-09T02:44:53.294Z,9.14
2024-05-09T02:48:55.163Z,9.02
2024-05-09T02:52:57.108Z,8.99
2024-05-09T02:56:58.904Z,8.94
2024-05-09T03:01:03.371Z,9.04
2024-05-09T03:05:05.649Z,9.12
2024-05-09T03:09:08.736Z,8.85
2024-05-09T03:13:14.555Z,9.01
2024-05-09T03:17:20.253Z,8.97
2024-05-09T03:21:22.033Z,8.86
2024-05-09T03:25:24.100Z,8.71
2024-05-09T03:29:26.020Z,8.70
2024-05-09T03:33:30.704Z,8.75
2024-05-09T03:37:32.577Z,8.76
2024-05-09T03:41:34.364Z,8.64
2024-05-09T03:45:36.262Z,8.73
2024-05-09T03:49:40.839Z,8.60
2024-05-09T03:53:42.604Z,8.51
2024-05-09T03:57:44.388Z,8.52
2024-05-09T04:01:46.352Z,8.58
2024-05-09T04:05:50.885Z,8.72
2024-05-09T04:09:52.639Z,8.54
2024-05-09T04:13:54.439Z,8.65
2024-05-09T04:17:56.494Z,8.52
2024-05-09T04:22:01.174Z,8.48
2024-05-09T04:26:02.955Z,8.52
2024-05-09T04:30:09.942Z,8.55
2024-05-09T04:34:14.628Z,8.49
2024-05-09T04:38:19.930Z,8.63
2024-05-09T04:42:21.725Z,8.65
2024-05-09T04:46:23.513Z,8.75
2024-05-09T04:50:35.128Z,9.02
2024-05-09T04:54:42.509Z,9.00
2024-05-09T04:58:44.810Z,9.20
2024-05-09T05:02:46.788Z,9.39
2024-05-09T05:06:48.622Z,9.50
2024-05-09T05:10:53.185Z,9.79
2024-05-09T05:14:55.181Z,10.24
2024-05-09T05:18:57.388Z,10.62
2024-05-09T05:22:59.238Z,10.88
2024-05-09T05:27:03.959Z,11.12
2024-05-09T05:31:05.654Z,11.38
2024-05-09T05:35:07.543Z,11.42
2024-05-09T05:39:09.362Z,12.08
2024-05-09T05:43:19.017Z,12.45
2024-05-09T05:47:21.083Z,12.90
2024-05-09T05:51:22.919Z,13.15
2024-05-09T05:55:24.655Z,13.67
2024-05-09T05:59:29.255Z,14.13
2024-05-09T06:03:31.203Z,14.24
2024-05-09T06:07:33.415Z,14.79
2024-05-09T06:11:35.562Z,15.27
2024-05-09T06:15:40.939Z,15.80
2024-05-09T06:19:43.110Z,16.59
2024-05-09T06:23:45.885Z,16.45
2024-05-09T06:27:47.773Z,17.26
2024-05-09T06:31:53.500Z,18.02
2024-05-09T06:35:55.850Z,18.04
2024-05-09T06:39:57.692Z,18.30
2024-05-09T06:43:59.632Z,18.99
2024-05-09T06:48:04.972Z,19.77
2024-05-09T06:52:06.906Z,20.39
2024-05-09T06:56:08.799Z,21.10
2024-05-09T07:00:22.696Z,21.56
2024-05-09T07:04:35.009Z,21.83
2024-05-09T07:08:37.968Z,22.16
2024-05-09T07:12:39.805Z,22.57
2024-05-09T07:16:41.592Z,22.50
2024-05-09T07:20:48.208Z,23.21
2024-05-09T07:24:50.583Z,22.94
2024-05-09T07:28:52.452Z,23.84
2024-05-09T07:32:54.500Z,24.27
2024-05-09T07:36:59.295Z,24.03
2024-05-09T07:41:01.010Z,24.21
2024-05-09T07:45:21.302Z,24.64
2024-05-09T07:53:40.841Z,25.48
2024-05-09T07:57:47.554Z,25.82
2024-05-09T08:01:49.676Z,25.77
2024-05-09T08:05:51.997Z,26.10
2024-05-09T08:09:56.491Z,26.00
2024-05-09T08:13:58.478Z,26.17
2024-05-09T08:18:00.496Z,26.48
2024-05-09T08:22:02.545Z,24.93
2024-05-09T08:26:06.955Z,26.06
2024-05-09T08:30:15.472Z,26.83
2024-05-09T08:34:24.666Z,27.37
2024-05-09T08:38:26.603Z,27.00
2024-05-09T08:42:32.432Z,26.74
2024-05-09T08:46:36.440Z,27.51
2024-05-09T08:50:40.757Z,28.39
2024-05-09T08:54:42.773Z,28.58
2024-05-09T08:58:49.319Z,29.96
2024-05-09T09:02:51.992Z,29.92
2024-05-09T09:06:58.381Z,29.36
2024-05-09T09:11:01.191Z,27.07
2024-05-09T09:15:05.991Z,27.11
2024-05-09T09:19:08.177Z,28.49
2024-05-09T09:23:10.160Z,29.33
2024-05-09T09:27:13.907Z,30.77
2024-05-09T09:31:19.846Z,31.35
2024-05-09T09:35:21.647Z,31.00
2024-05-09T09:39:27.835Z,29.72
2024-05-09T09:43:31.637Z,29.79
2024-05-09T09:47:37.737Z,30.68
2024-05-09T09:51:41.590Z,28.53
2024-05-09T09:55:43.566Z,28.97
2024-05-09T09:59:49.831Z,28.36
2024-05-09T10:03:54.529Z,30.63
2024-05-09T10:07:58.286Z,30.39
2024-05-09T10:12:09.608Z,29.02
2024-05-09T10:16:12.250Z,27.23
2024-05-09T10:20:21.945Z,28.57
2024-05-09T10:24:27.213Z,29.68
2024-05-09T10:28:30.985Z,30.20
2024-05-09T10:32:38.264Z,30.95
2024-05-09T10:36:44.045Z,30.73
2024-05-09T10:40:46.202Z,30.40
2024-05-09T10:44:48.171Z,28.98
2024-05-09T10:48:50.735Z,30.78
2024-05-09T10:52:55.445Z,29.70
2024-05-09T10:56:57.442Z,31.31
2024-05-09T11:01:00.661Z,32.20
2024-05-09T11:05:04.782Z,32.47
2024-05-09T11:09:10.112Z,31.09
2024-05-09T11:13:12.353Z,30.50
2024-05-09T11:17:14.216Z,30.32
2024-05-09T11:21:16.040Z,29.97
2024-05-09T11:25:20.539Z,27.42
2024-05-09T11:29:22.279Z,28.54
2024-05-09T11:33:24.368Z,29.72
2024-05-09T11:37:26.412Z,30.43
2024-05-09T11:41:32.201Z,31.65
2024-05-09T11:45:34.207Z,32.27
2024-05-09T11:49:36.181Z,32.76
2024-05-09T11:53:38.205Z,34.00
2024-05-09T11:57:42.639Z,33.76
2024-05-09T12:01:44.517Z,34.00
2024-05-09T12:05:46.634Z,33.48
2024-05-09T12:09:48.376Z,33.46
2024-05-09T12:13:52.908Z,31.69
2024-05-09T12:17:55.974Z,31.21
2024-05-09T12:21:59.162Z,33.44
2024-05-09T12:26:01.057Z,34.05
2024-05-09T12:30:09.048Z,30.77
2024-05-09T12:34:13.793Z,32.44
2024-05-09T12:38:15.799Z,32.59
2024-05-09T12:42:26.562Z,33.89
2024-05-09T12:46:32.581Z,34.36
2024-05-09T12:50:34.947Z,34.66
2024-05-09T12:54:37.092Z,34.97
2024-05-09T12:58:38.935Z,35.04
2024-05-09T13:02:43.514Z,35.80
2024-05-09T13:06:45.464Z,34.78
2024-05-09T13:10:47.896Z,34.52
2024-05-09T13:14:49.875Z,34.94
2024-05-09T13:18:54.379Z,35.20
2024-05-09T13:22:56.238Z,34.19
2024-05-09T13:26:58.080Z,35.44
2024-05-09T13:30:59.874Z,36.00
2024-05-09T13:35:04.700Z,36.12
2024-05-09T13:39:06.595Z,34.76
2024-05-09T13:43:08.326Z,30.93
2024-05-09T13:47:10.388Z,29.29
2024-05-09T13:51:14.755Z,27.46
2024-05-09T13:55:16.678Z,26.20
2024-05-09T13:59:18.492Z,25.91
2024-05-09T14:03:21.059Z,25.64
2024-05-09T14:07:25.931Z,24.83
2024-05-09T14:11:27.692Z,25.01
2024-05-09T14:15:29.523Z,26.06
2024-05-09T14:19:31.360Z,26.39
2024-05-09T14:23:35.758Z,26.80
2024-05-09T14:27:37.685Z,27.14
2024-05-09T14:31:39.854Z,27.35
2024-05-09T14:35:41.801Z,27.05
2024-05-09T14:39:46.237Z,27.31
2024-05-09T14:43:47.998Z,26.94
2024-05-09T14:47:50.001Z,26.69
2024-05-09T14:51:51.796Z,26.68
2024-05-09T14:55:56.316Z,26.43
2024-05-09T14:59:58.115Z,26.19
2024-05-09T15:03:59.905Z,26.11
2024-05-09T15:08:01.728Z,25.88
2024-05-09T15:12:06.486Z,25.51
2024-05-09T15:16:08.368Z,25.33
2024-05-09T15:20:16.771Z,25.21
2024-05-09T15:24:19.419Z,25.05
2024-05-09T15:28:24.011Z,24.75
2024-05-09T15:32:26.267Z,24.57
2024-05-09T15:36:28.097Z,24.83
2024-05-09T15:40:37.245Z,24.75
2024-05-09T15:44:44.252Z,24.59
2024-05-09T15:48:46.195Z,24.16
2024-05-09T15:52:48.087Z,24.32
2024-05-09T15:56:49.856Z,24.22
2024-05-09T16:00:54.602Z,23.88
2024-05-09T16:04:56.565Z,23.82
2024-05-09T16:08:58.420Z,23.82
2024-05-09T16:13:00.234Z,23.50
2024-05-09T16:17:05.310Z,22.95
2024-05-09T16:21:08.002Z,22.89
2024-05-09T16:25:09.760Z,22.61
2024-05-09T16:29:11.657Z,22.50
2024-05-09T16:33:16.193Z,22.37
2024-05-09T16:37:18.140Z,22.28
2024-05-09T16:41:20.023Z,22.28
2024-05-09T16:45:21.868Z,22.08
2024-05-09T16:49:26.795Z,22.11
2024-05-09T16:53:28.606Z,21.95
2024-05-09T16:57:30.466Z,21.94
2024-05-09T17:01:32.334Z,21.66
2024-05-09T17:05:37.242Z,21.61
2024-05-09T17:09:39.375Z,21.53
2024-05-09T17:13:41.106Z,21.52
2024-05-09T17:17:42.953Z,21.40
2024-05-09T17:21:47.457Z,21.23
2024-05-09T17:25:49.340Z,21.13
2024-05-09T17:29:51.128Z,21.25
2024-05-09T17:33:53.293Z,21.11
2024-05-09T17:37:58.484Z,20.91
2024-05-09T17:42:00.247Z,20.91
2024-05-09T17:46:02.239Z,20.87
2024-05-09T17:50:04.489Z,20.79
2024-05-09T17:54:09.268Z,20.64
2024-05-09T17:58:12.578Z,20.64
2024-05-09T18:02:14.503Z,20.44
2024-05-09T18:06:16.302Z,20.68
2024-05-09T18:10:25.996Z,20.57
2024-05-09T18:14:34.818Z,20.34
2024-05-09T18:18:36.834Z,20.61
2024-05-09T18:22:38.716Z,20.08
2024-05-09T18:26:43.192Z,19.96
2024-05-09T18:30:45.125Z,20.00
2024-05-09T18:34:47.138Z,19.59
2024-05-09T18:38:49.062Z,19.68
2024-05-09T18:42:53.521Z,19.64
2024-05-09T18:46:55.263Z,19.65
2024-05-09T18:50:57.052Z,19.32
2024-05-09T18:54:58.875Z,19.16
2024-05-09T18:59:03.170Z,18.89
2024-05-09T19:03:06.616Z,18.73
2024-05-09T19:07:08.780Z,18.46
2024-05-09T19:11:11.630Z,18.23
2024-05-09T19:15:16.084Z,17.84
2024-05-09T19:19:18.068Z,17.92
2024-05-09T19:23:19.864Z,17.84
2024-05-09T19:27:22.816Z,17.63
2024-05-09T19:31:27.510Z,17.55
2024-05-09T19:35:29.320Z,17.63
2024-05-09T19:39:31.291Z,17.58
2024-05-09T19:43:36.035Z,17.60
2024-05-09T19:47:41.066Z,17.48
2024-05-09T19:51:42.913Z,17.39
2024-05-09T19:55:44.923Z,17.29
2024-05-09T19:59:46.639Z,17.26
2024-05-09T20:03:51.244Z,17.03
2024-05-09T20:07:53.080Z,16.89
2024-05-09T20:11:54.980Z,16.81
2024-05-09T20:15:56.865Z,16.63
2024-05-09T20:20:01.918Z,16.73
2024-05-09T20:24:03.918Z,16.78
2024-05-09T20:28:06.273Z,16.81
2024-05-09T20:32:08.467Z,16.88
2024-05-09T20:36:12.954Z,16.69
2024-05-09T20:40:21.258Z,16.54
2024-05-09T20:44:27.362Z,16.64
2024-05-09T20:48:31.039Z,16.48
2024-05-09T20:52:36.393Z,16.64
2024-05-09T20:56:38.100Z,16.49
2024-05-09T21:00:43.276Z,16.32
2024-05-09T21:04:47.159Z,16.39
2024-05-09T21:08:51.620Z,16.20
2024-05-09T21:12:53.643Z,16.21
2024-05-09T21:16:55.808Z,16.07
2024-05-09T21:20:57.707Z,16.19
2024-05-09T21:25:02.300Z,16.03
2024-05-09T21:29:05.139Z,16.03
2024-05-09T21:33:07.766Z,16.05
2024-05-09T21:37:09.778Z,15.93
2024-05-09T21:41:14.212Z,15.91
2024-05-09T21:45:16.103Z,15.79
2024-05-09T21:49:18.083Z,15.81
2024-05-09T21:53:20.114Z,15.69
2024-05-09T21:57:24.651Z,15.82
2024-05-09T22:01:26.640Z,15.78
2024-05-09T22:05:28.725Z,15.60
2024-05-09T22:09:30.562Z,15.70
2024-05-09T22:13:35.189Z,15.71
2024-05-09T22:17:39.274Z,15.56
2024-05-09T22:21:41.188Z,15.60
2024-05-09T22:25:43.040Z,15.40
2024-05-09T22:29:47.520Z,15.41
2024-05-09T22:33:49.479Z,15.28
2024-05-09T22:37:51.370Z,15.24
2024-05-09T22:41:53.218Z,15.30
2024-05-09T22:45:57.691Z,15.22
2024-05-09T22:49:59.538Z,15.12
2024-05-09T22:54:03.784Z,15.13
2024-05-09T22:58:05.585Z,15.07
2024-05-09T23:02:10.224Z,14.86
2024-05-09T23:06:12.241Z,14.89
2024-05-09T23:10:20.999Z,14.86
2024-05-09T23:14:28.968Z,14.76
2024-05-09T23:18:33.490Z,14.78
2024-05-09T23:22:35.316Z,14.82
2024-05-09T23:26:41.484Z,14.61
2024-05-09T23:30:43.375Z,14.57
2024-05-09T23:34:47.923Z,14.56
2024-05-09T23:38:49.602Z,14.51
2024-05-09T23:42:51.432Z,14.46
2024-05-09T23:46:53.351Z,14.51
2024-05-09T23:50:57.775Z,14.50
2024-05-09T23:54:59.766Z,14.37
2024-05-09T23:59:01.575Z,14.37
